createdAt,value
2022-09-17T00:00:11.365Z,20.15
2022-09-17T00:02:46.196Z,19.38
2022-09-17T00:05:35.411Z,20.58
2022-09-17T00:08:08.454Z,17.98
2022-09-17T00:10:55.426Z,19.25
2022-09-17T00:13:29.462Z,19.25
2022-09-17T00:16:19.467Z,18.73
2022-09-17T00:18:52.505Z,18.50
2022-09-17T00:21:39.370Z,18.05
2022-09-17T00:24:20.379Z,18.60
2022-09-17T00:27:14.404Z,17.73
2022-09-17T00:30:08.371Z,19.65
2022-09-17T00:33:04.371Z,20.23
2022-09-17T00:35:58.390Z,21.08
2022-09-17T00:38:52.383Z,18.67
2022-09-17T00:41:48.390Z,18.60
2022-09-17T00:45:05.440Z,18.15
2022-09-17T00:48:04.377Z,17.85
2022-09-17T00:50:51.420Z,18.95
2022-09-17T00:53:35.421Z,19.58
2022-09-17T00:56:42.398Z,18.42
2022-09-17T00:59:30.377Z,17.90
2022-09-17T01:02:03.527Z,18.60
2022-09-17T01:04:50.406Z,19.13
2022-09-17T01:07:35.429Z,19.83
2022-09-17T01:10:49.428Z,17.50
2022-09-17T01:14:25.419Z,19.00
2022-09-17T01:16:58.694Z,18.90
2022-09-17T01:20:04.404Z,18.27
2022-09-17T01:22:59.510Z,19.67
2022-09-17T01:26:14.392Z,19.40
2022-09-17T01:29:23.411Z,18.08
2022-09-17T01:32:22.398Z,18.45
2022-09-17T01:35:34.414Z,18.65
2022-09-17T01:38:50.395Z,17.70
2022-09-17T01:41:37.605Z,18.45
2022-09-17T01:44:52.397Z,19.95
2022-09-17T01:47:40.417Z,19.90
2022-09-17T01:50:59.420Z,18.88
2022-09-17T01:54:09.415Z,18.00
2022-09-17T01:57:15.414Z,19.25
2022-09-17T02:00:21.379Z,18.27
2022-09-17T02:03:25.415Z,18.70
2022-09-17T02:06:09.546Z,18.08
2022-09-17T02:09:03.427Z,16.83
2022-09-17T02:11:39.506Z,18.50
2022-09-17T02:14:31.439Z,19.23
2022-09-17T02:17:20.436Z,18.38
2022-09-17T02:20:14.443Z,17.77
2022-09-17T02:23:09.429Z,19.08
2022-09-17T02:25:50.562Z,19.65
2022-09-17T02:28:48.443Z,17.48
2022-09-17T02:31:21.641Z,17.55
2022-09-17T02:34:12.442Z,17.75
2022-09-17T02:36:45.530Z,18.73
2022-09-17T02:39:33.441Z,20.48
2022-09-17T02:42:35.450Z,19.83
2022-09-17T02:45:46.457Z,19.23
2022-09-17T02:48:54.444Z,17.50
2022-09-17T02:51:56.535Z,19.88
2022-09-17T02:54:49.408Z,17.90
2022-09-17T02:57:33.553Z,17.35
2022-09-17T03:00:24.465Z,19.50
2022-09-17T03:03:12.470Z,19.13
2022-09-17T03:06:07.461Z,19.75
2022-09-17T03:08:54.466Z,17.70
2022-09-17T03:11:36.616Z,18.67
2022-09-17T03:14:23.456Z,19.08
2022-09-17T03:16:56.547Z,18.60
2022-09-17T03:19:43.460Z,18.90
2022-09-17T03:22:16.533Z,18.55
2022-09-17T03:25:03.454Z,19.15
2022-09-17T03:27:43.462Z,19.52
2022-09-17T03:30:37.454Z,18.23
2022-09-17T03:33:24.502Z,18.60
2022-09-17T03:36:04.465Z,20.25
2022-09-17T03:39:00.800Z,19.10
2022-09-17T03:41:56.522Z,19.60
2022-09-17T03:44:52.538Z,18.33
2022-09-17T03:47:39.456Z,17.88
2022-09-17T03:50:20.510Z,18.52
2022-09-17T03:53:07.470Z,18.33
2022-09-17T03:55:40.566Z,17.55
2022-09-17T03:58:27.468Z,18.40
2022-09-17T04:01:00.586Z,17.48
2022-09-17T04:03:47.490Z,17.65
2022-09-17T04:06:27.479Z,18.08
2022-09-17T04:09:15.462Z,17.63
2022-09-17T04:11:48.596Z,16.92
2022-09-17T04:14:35.463Z,16.75
2022-09-17T04:17:15.488Z,17.15
2022-09-17T04:20:02.509Z,18.20
2022-09-17T04:22:44.801Z,15.93
2022-09-17T04:25:38.513Z,15.60
2022-09-17T04:28:34.780Z,16.27
2022-09-17T04:31:29.519Z,16.00
2022-09-17T04:34:16.508Z,14.95
2022-09-17T04:36:56.521Z,15.27
2022-09-17T04:39:44.508Z,16.77
2022-09-17T04:42:24.514Z,16.73
2022-09-17T04:45:11.525Z,15.93
2022-09-17T04:47:54.525Z,17.20
2022-09-17T04:50:41.512Z,15.30
2022-09-17T04:53:21.507Z,14.77
2022-09-17T04:56:15.515Z,15.23
2022-09-17T04:59:02.518Z,15.48
2022-09-17T05:01:42.559Z,14.65
2022-09-17T05:04:29.517Z,14.45
2022-09-17T05:07:02.901Z,15.18
2022-09-17T05:09:49.514Z,13.50
2022-09-17T05:12:22.592Z,14.85
2022-09-17T05:15:10.507Z,15.75
2022-09-17T05:17:43.605Z,16.08
2022-09-17T05:20:30.521Z,14.48
2022-09-17T05:23:03.610Z,16.88
2022-09-17T05:25:50.505Z,16.33
2022-09-17T05:28:23.613Z,17.45
2022-09-17T05:31:17.595Z,20.08
2022-09-17T05:34:12.532Z,17.90
2022-09-17T05:36:59.519Z,20.60
2022-09-17T05:39:33.105Z,17.65
2022-09-17T05:42:19.519Z,19.98
2022-09-17T05:44:52.639Z,19.75
2022-09-17T05:47:39.540Z,19.75
2022-09-17T05:50:12.787Z,20.63
2022-09-17T05:53:00.581Z,20.38
2022-09-17T05:55:33.673Z,18.85
2022-09-17T05:58:21.521Z,20.42
2022-09-17T06:01:01.553Z,20.15
2022-09-17T06:03:34.622Z,20.23
2022-09-17T06:06:21.516Z,20.15
2022-09-17T06:08:54.634Z,20.05
2022-09-17T06:11:42.528Z,20.38
2022-09-17T06:14:16.350Z,18.85
2022-09-17T06:17:02.545Z,18.58
2022-09-17T06:19:35.623Z,17.33
2022-09-17T06:22:25.527Z,17.55
2022-09-17T06:25:07.541Z,18.83
2022-09-17T06:27:54.543Z,17.23
2022-09-17T06:30:34.551Z,17.73
2022-09-17T06:33:21.567Z,16.15
2022-09-17T06:35:54.669Z,17.38
2022-09-17T06:38:42.577Z,16.65
2022-09-17T06:41:23.573Z,18.10
2022-09-17T06:44:11.545Z,18.08
2022-09-17T06:46:51.589Z,17.77
2022-09-17T06:49:45.535Z,17.20
2022-09-17T06:52:32.560Z,15.38
2022-09-17T06:55:05.650Z,16.58
2022-09-17T06:57:52.558Z,18.70
2022-09-17T07:00:25.898Z,17.20
2022-09-17T07:03:12.574Z,16.75
2022-09-17T07:05:45.973Z,17.42
2022-09-17T07:08:32.561Z,20.02
2022-09-17T07:11:05.661Z,18.70
2022-09-17T07:13:52.575Z,18.13
2022-09-17T07:16:26.802Z,17.95
2022-09-17T07:19:14.906Z,17.10
2022-09-17T07:21:48.782Z,19.35
2022-09-17T07:24:35.563Z,16.75
2022-09-17T07:27:08.660Z,18.15
2022-09-17T07:30:02.561Z,17.20
2022-09-17T07:32:49.579Z,16.58
2022-09-17T07:35:29.573Z,15.93
2022-09-17T07:38:23.592Z,15.57
2022-09-17T07:41:24.581Z,16.52
2022-09-17T07:44:13.567Z,16.77
2022-09-17T07:46:53.635Z,16.15
2022-09-17T07:49:47.570Z,18.77
2022-09-17T07:52:41.600Z,19.77
2022-09-17T07:55:30.581Z,16.75
2022-09-17T07:58:03.715Z,18.50
2022-09-17T08:00:50.591Z,18.55
2022-09-17T08:03:23.666Z,18.17
2022-09-17T08:06:21.592Z,16.23
2022-09-17T08:09:01.572Z,18.58
2022-09-17T08:11:56.655Z,19.45
2022-09-17T08:14:50.598Z,17.08
2022-09-17T08:17:44.598Z,16.45
2022-09-17T08:20:32.584Z,19.10
2022-09-17T08:23:06.722Z,18.38
2022-09-17T08:26:05.615Z,17.77
2022-09-17T08:28:45.603Z,13.57
2022-09-17T08:31:40.740Z,15.93
2022-09-17T08:34:27.601Z,15.75
2022-09-17T08:37:00.772Z,17.13
2022-09-17T08:39:47.618Z,15.25
2022-09-17T08:42:55.592Z,16.15
2022-09-17T08:45:42.613Z,13.77
2022-09-17T08:48:20.736Z,13.20
2022-09-17T08:51:17.611Z,15.00
2022-09-17T08:54:15.605Z,14.82
2022-09-17T08:57:43.631Z,14.50
2022-09-17T09:00:31.604Z,14.60
2022-09-17T09:03:43.616Z,14.38
2022-09-17T09:06:43.618Z,14.35
2022-09-17T09:09:41.662Z,15.68
2022-09-17T09:12:40.672Z,14.95
2022-09-17T09:15:53.652Z,15.15
2022-09-17T09:18:32.730Z,15.02
2022-09-17T09:21:37.608Z,14.20
2022-09-17T09:24:25.255Z,15.30
2022-09-17T09:27:46.637Z,14.68
2022-09-17T09:30:24.957Z,16.10
2022-09-17T09:33:40.892Z,15.57
2022-09-17T09:36:22.167Z,16.08
2022-09-17T09:39:14.643Z,13.38
2022-09-17T09:42:16.642Z,14.23
2022-09-17T09:45:35.644Z,15.10
2022-09-17T09:48:47.655Z,14.07
2022-09-17T09:52:08.656Z,14.57
2022-09-17T09:55:08.742Z,15.25
2022-09-17T09:58:02.642Z,14.27
2022-09-17T10:00:44.643Z,14.00
2022-09-17T10:03:39.672Z,14.63
2022-09-17T10:06:15.766Z,14.00
2022-09-17T10:09:02.656Z,14.63
2022-09-17T10:11:39.549Z,15.10
2022-09-17T10:14:34.663Z,15.32
2022-09-17T10:17:36.660Z,15.15
2022-09-17T10:20:31.646Z,16.08
2022-09-17T10:23:18.663Z,14.82
2022-09-17T10:25:54.040Z,15.23
2022-09-17T10:28:57.733Z,16.20
2022-09-17T10:31:37.707Z,16.13
2022-09-17T10:34:39.677Z,14.60
2022-09-17T10:37:41.661Z,16.90
2022-09-17T10:40:27.440Z,16.23
2022-09-17T10:43:34.681Z,15.75
2022-09-17T10:46:15.710Z,16.05
2022-09-17T10:49:30.693Z,16.08
2022-09-17T10:52:23.675Z,15.52
2022-09-17T10:55:19.697Z,17.65
2022-09-17T10:58:21.671Z,14.88
2022-09-17T11:01:40.786Z,16.23
2022-09-17T11:04:41.685Z,15.85
2022-09-17T11:07:46.697Z,15.10
2022-09-17T11:10:50.694Z,15.00
2022-09-17T11:14:08.709Z,14.82
2022-09-17T11:16:58.683Z,14.30
2022-09-17T11:20:28.702Z,13.77
2022-09-17T11:23:40.696Z,14.43
2022-09-17T11:26:40.732Z,13.50
2022-09-17T11:30:11.694Z,14.98
2022-09-17T11:33:21.720Z,15.73
2022-09-17T11:36:30.679Z,14.60
2022-09-17T11:39:30.727Z,14.35
2022-09-17T11:42:31.704Z,15.50
2022-09-17T11:45:32.675Z,12.77
2022-09-17T11:48:18.703Z,13.82
2022-09-17T11:51:14.688Z,15.45
2022-09-17T11:53:53.796Z,14.48
2022-09-17T11:56:47.709Z,14.20
2022-09-17T11:59:47.066Z,15.88
2022-09-17T12:02:56.880Z,14.88
2022-09-17T12:05:32.824Z,16.20
2022-09-17T12:09:01.724Z,16.50
2022-09-17T12:11:53.720Z,15.45
2022-09-17T12:14:51.733Z,16.27
2022-09-17T12:17:36.803Z,15.90
2022-09-17T12:20:45.712Z,14.98
2022-09-17T12:23:24.815Z,15.32
2022-09-17T12:26:40.720Z,15.20
2022-09-17T12:29:48.722Z,15.43
2022-09-17T12:33:00.734Z,14.23
2022-09-17T12:36:06.711Z,15.60
2022-09-17T12:39:24.729Z,16.38
2022-09-17T12:42:22.711Z,15.63
2022-09-17T12:45:11.731Z,14.57
2022-09-17T12:48:19.733Z,15.27
2022-09-17T12:51:59.753Z,16.20
2022-09-17T12:54:54.738Z,15.77
2022-09-17T12:58:05.750Z,15.32
2022-09-17T13:01:02.771Z,14.75
2022-09-17T13:03:45.758Z,14.98
2022-09-17T13:07:09.728Z,14.75
2022-09-17T13:10:06.720Z,18.02
2022-09-17T13:12:59.750Z,19.27
2022-09-17T13:15:42.790Z,16.70
2022-09-17T13:18:41.422Z,17.13
2022-09-17T13:21:20.969Z,17.20
2022-09-17T13:24:08.749Z,15.90
2022-09-17T13:26:45.799Z,17.05
2022-09-17T13:29:53.771Z,16.13
2022-09-17T13:32:39.789Z,16.23
2022-09-17T13:35:29.756Z,17.63
2022-09-17T13:38:06.891Z,15.90
2022-09-17T13:40:53.753Z,15.70
2022-09-17T13:43:37.769Z,16.38
2022-09-17T13:46:38.817Z,15.65
2022-09-17T13:49:25.795Z,15.10
2022-09-17T13:52:11.641Z,16.50
2022-09-17T13:54:58.763Z,13.70
2022-09-17T13:57:33.915Z,16.55
2022-09-17T14:00:55.815Z,16.40
2022-09-17T14:03:34.923Z,16.92
2022-09-17T14:06:21.761Z,15.57
2022-09-17T14:08:58.057Z,14.27
2022-09-17T14:11:44.764Z,15.05
2022-09-17T14:14:20.863Z,16.55
2022-09-17T14:17:07.778Z,15.93
2022-09-17T14:19:57.880Z,16.88
2022-09-17T14:22:44.792Z,15.73
2022-09-17T14:25:26.877Z,17.15
2022-09-17T14:28:49.878Z,16.58
2022-09-17T14:31:34.783Z,15.18
2022-09-17T14:34:36.773Z,14.80
2022-09-17T14:37:27.822Z,15.93
2022-09-17T14:40:00.910Z,13.93
2022-09-17T14:42:47.791Z,15.13
2022-09-17T14:45:25.879Z,15.68
2022-09-17T14:48:37.798Z,14.48
2022-09-17T14:51:32.787Z,18.73
2022-09-17T14:54:36.232Z,13.63
2022-09-17T14:57:33.803Z,12.48
2022-09-17T15:00:14.790Z,15.07
2022-09-17T15:03:09.832Z,15.65
2022-09-17T15:06:03.792Z,13.60
2022-09-17T15:08:58.796Z,16.38
2022-09-17T15:11:48.800Z,15.70
2022-09-17T15:14:48.928Z,16.25
2022-09-17T15:17:36.797Z,15.40
2022-09-17T15:20:11.916Z,15.10
2022-09-17T15:23:07.822Z,14.80
2022-09-17T15:25:43.171Z,13.60
2022-09-17T15:28:44.814Z,13.45
2022-09-17T15:31:27.069Z,13.88
2022-09-17T15:34:16.831Z,16.15
2022-09-17T15:37:09.997Z,14.95
2022-09-17T15:39:59.869Z,14.15
2022-09-17T15:42:37.912Z,16.05
2022-09-17T15:45:32.795Z,16.90
2022-09-17T15:48:11.022Z,12.60
2022-09-17T15:51:00.812Z,14.05
2022-09-17T15:53:35.977Z,13.80
2022-09-17T15:56:25.826Z,13.35
2022-09-17T15:59:14.817Z,15.50
2022-09-17T16:02:04.947Z,17.77
2022-09-17T16:04:48.822Z,14.60
2022-09-17T16:07:36.842Z,13.30
2022-09-17T16:10:13.920Z,15.50
2022-09-17T16:13:02.827Z,15.95
2022-09-17T16:15:42.846Z,15.60
2022-09-17T16:18:29.823Z,14.27
2022-09-17T16:21:10.847Z,16.67
2022-09-17T16:24:00.843Z,15.93
2022-09-17T16:26:46.851Z,14.25
2022-09-17T16:29:33.839Z,15.25
2022-09-17T16:32:07.491Z,15.15
2022-09-17T16:34:53.842Z,13.70
2022-09-17T16:37:27.053Z,15.23
2022-09-17T16:40:17.928Z,15.98
2022-09-17T16:42:50.930Z,15.52
2022-09-17T16:45:38.862Z,13.93
2022-09-17T16:48:19.866Z,12.80
2022-09-17T16:51:14.850Z,14.85
2022-09-17T16:54:03.850Z,14.70
2022-09-17T16:56:36.939Z,13.82
2022-09-17T16:59:23.873Z,15.27
2022-09-17T17:01:57.017Z,13.63
2022-09-17T17:04:43.936Z,13.50
2022-09-17T17:07:17.083Z,14.65
2022-09-17T17:10:05.863Z,15.57
2022-09-17T17:12:38.973Z,15.43
2022-09-17T17:15:25.860Z,15.27
2022-09-17T17:17:59.975Z,15.48
2022-09-17T17:20:46.862Z,14.95
2022-09-17T17:23:20.197Z,14.90
2022-09-17T17:26:06.869Z,14.85
2022-09-17T17:28:47.910Z,14.30
2022-09-17T17:31:43.931Z,16.35
2022-09-17T17:34:30.992Z,15.77
2022-09-17T17:37:07.350Z,14.35
2022-09-17T17:39:55.963Z,13.80
2022-09-17T17:42:41.888Z,14.25
2022-09-17T17:45:35.916Z,14.85
2022-09-17T17:48:22.877Z,15.23
2022-09-17T17:50:56.916Z,14.23
2022-09-17T17:53:44.895Z,18.60
2022-09-17T17:56:26.886Z,16.20
2022-09-17T17:59:20.883Z,15.60
2022-09-17T18:02:07.994Z,16.05
2022-09-17T18:04:47.849Z,15.80
2022-09-17T18:07:42.882Z,15.57
2022-09-17T18:10:30.907Z,15.32
2022-09-17T18:13:03.984Z,15.23
2022-09-17T18:15:59.937Z,18.15
2022-09-17T18:18:48.902Z,17.48
2022-09-17T18:21:42.880Z,17.35
2022-09-17T18:24:29.912Z,16.63
2022-09-17T18:27:03.000Z,16.00
2022-09-17T18:29:49.907Z,18.17
2022-09-17T18:32:22.990Z,17.92
2022-09-17T18:35:09.909Z,19.00
2022-09-17T18:37:43.001Z,17.75
2022-09-17T18:40:29.932Z,15.65
2022-09-17T18:43:03.006Z,18.27
2022-09-17T18:45:49.915Z,18.88
2022-09-17T18:48:22.984Z,17.10
2022-09-17T18:51:14.919Z,19.00
2022-09-17T18:53:51.514Z,16.45
2022-09-17T18:56:39.916Z,16.55
2022-09-17T18:59:13.203Z,17.23
2022-09-17T19:01:59.985Z,17.10
2022-09-17T19:04:33.004Z,18.05
2022-09-17T19:07:19.920Z,20.13
2022-09-17T19:09:59.913Z,18.63
2022-09-17T19:12:47.919Z,19.00
2022-09-17T19:15:30.920Z,18.10
2022-09-17T19:18:17.913Z,17.80
2022-09-17T19:20:57.905Z,19.33
2022-09-17T19:23:55.922Z,19.55
2022-09-17T19:26:57.917Z,17.42
2022-09-17T19:29:44.945Z,16.50
2022-09-17T19:32:24.919Z,17.35
2022-09-17T19:35:12.957Z,18.75
2022-09-17T19:37:46.099Z,18.10
2022-09-17T19:40:32.986Z,19.08
2022-09-17T19:43:06.043Z,17.83
2022-09-17T19:45:52.915Z,17.60
2022-09-17T19:48:26.101Z,17.92
2022-09-17T19:51:12.947Z,18.13
2022-09-17T19:53:47.028Z,18.08
2022-09-17T19:56:33.942Z,18.13
2022-09-17T19:59:13.926Z,17.85
2022-09-17T20:02:07.973Z,18.02
2022-09-17T20:04:54.938Z,17.65
2022-09-17T20:07:34.973Z,16.50
2022-09-17T20:10:28.937Z,18.70
2022-09-17T20:13:15.928Z,19.20
2022-09-17T20:15:55.992Z,15.88
2022-09-17T20:18:42.929Z,17.35
2022-09-17T20:21:31.946Z,17.55
2022-09-17T20:24:18.950Z,17.95
2022-09-17T20:26:58.990Z,19.98
2022-09-17T20:29:52.953Z,20.30
2022-09-17T20:32:46.941Z,18.88
2022-09-17T20:35:40.991Z,18.60
2022-09-17T20:41:51.986Z,18.98
2022-09-17T20:44:38.941Z,18.30
2022-09-17T20:47:12.079Z,17.85
2022-09-17T20:50:00.946Z,18.20
2022-09-17T20:52:40.974Z,18.85
2022-09-17T20:55:36.004Z,20.38
2022-09-17T20:58:29.968Z,20.10
2022-09-17T21:01:27.053Z,19.20
2022-09-17T21:04:08.083Z,18.70
2022-09-17T21:06:58.964Z,19.10
2022-09-17T21:09:32.078Z,19.55
2022-09-17T21:12:18.986Z,19.98
2022-09-17T21:14:52.075Z,20.98
2022-09-17T21:17:39.962Z,21.73
2022-09-17T21:20:14.060Z,20.40
2022-09-17T21:23:00.968Z,20.15
2022-09-17T21:25:40.994Z,19.48
2022-09-17T21:28:34.981Z,20.80
2022-09-17T21:31:33.039Z,21.17
2022-09-17T21:34:20.978Z,20.38
2022-09-17T21:36:55.139Z,20.02
2022-09-17T21:39:41.990Z,20.30
2022-09-17T21:42:15.083Z,20.42
2022-09-17T21:45:01.994Z,20.80
2022-09-17T21:47:35.076Z,20.67
2022-09-17T21:50:21.981Z,20.88
2022-09-17T21:53:01.989Z,19.88
2022-09-17T21:55:48.980Z,22.10
2022-09-17T21:58:31.992Z,21.55
2022-09-17T22:01:22.050Z,21.90
2022-09-17T22:04:02.090Z,19.60
2022-09-17T22:06:56.998Z,20.88
2022-09-17T22:09:50.987Z,22.92
2022-09-17T22:12:45.013Z,24.00
2022-09-17T22:15:31.994Z,21.58
2022-09-17T22:18:13.064Z,21.92
2022-09-17T22:21:01.010Z,22.65
2022-09-17T22:23:41.032Z,21.92
2022-09-17T22:26:38.004Z,21.67
2022-09-17T22:29:33.983Z,23.92
2022-09-17T22:32:29.014Z,23.35
2022-09-17T22:35:22.987Z,21.48
2022-09-17T22:38:10.019Z,21.90
2022-09-17T22:40:43.149Z,22.08
2022-09-17T22:43:30.026Z,22.02
2022-09-17T22:46:03.179Z,21.45
2022-09-17T22:48:50.009Z,23.35
2022-09-17T22:51:25.147Z,22.17
2022-09-17T22:54:13.014Z,20.45
2022-09-17T22:56:47.188Z,19.85
2022-09-17T22:59:34.015Z,18.65
2022-09-17T23:02:07.691Z,20.45
2022-09-17T23:04:54.030Z,20.42
2022-09-17T23:07:27.104Z,19.92
2022-09-17T23:10:14.045Z,18.98
2022-09-17T23:12:47.127Z,17.25
2022-09-17T23:15:34.027Z,17.92
2022-09-17T23:18:07.124Z,19.73
2022-09-17T23:21:07.053Z,19.48
2022-09-17T23:23:42.238Z,18.23
2022-09-17T23:26:32.030Z,19.23
2022-09-17T23:29:07.133Z,19.33
2022-09-17T23:32:01.029Z,17.90
2022-09-17T23:34:55.027Z,19.20
2022-09-17T23:37:49.048Z,19.38
2022-09-17T23:40:43.029Z,17.20
2022-09-17T23:43:30.054Z,17.85
2022-09-17T23:46:03.246Z,18.60
2022-09-17T23:48:50.053Z,18.52
2022-09-17T23:51:23.190Z,19.67
2022-09-17T23:54:12.049Z,19.75
2022-09-17T23:56:45.157Z,17.52
2022-09-17T23:59:32.048Z,18.98
